sensor_id;sensor_type;location;lat;lon;timestamp;P1;durP1;ratioP1;P2;durP2;ratioP2
15230;SDS011;32569;51.762;8.564;2022-12-11T00:01:08;21.13;;;15.83;;
15230;SDS011;32569;51.762;8.564;2022-12-11T00:03:35;24.07;;;17.03;;
15230;SDS011;32569;51.762;8.564;2022-12-11T00:06:03;24.77;;;17.60;;
15230;SDS011;32569;51.762;8.564;2022-12-11T00:08:31;22.67;;;16.23;;
15230;SDS011;32569;51.762;8.564;2022-12-11T00:10:59;24.40;;;16.80;;
15230;SDS011;32569;51.762;8.564;2022-12-11T00:13:26;23.30;;;16.57;;
15230;SDS011;32569;51.762;8.564;2022-12-11T00:15:53;25.40;;;18.60;;
15230;SDS011;32569;51.762;8.564;2022-12-11T00:18:20;23.53;;;17.10;;
15230;SDS011;32569;51.762;8.564;2022-12-11T00:20:47;24.10;;;17.03;;
15230;SDS011;32569;51.762;8.564;2022-12-11T00:23:14;25.87;;;18.27;;
15230;SDS011;32569;51.762;8.564;2022-12-11T00:25:41;24.30;;;17.13;;
15230;SDS011;32569;51.762;8.564;2022-12-11T00:28:10;24.53;;;15.83;;
15230;SDS011;32569;51.762;8.564;2022-12-11T00:30:38;27.53;;;17.13;;
15230;SDS011;32569;51.762;8.564;2022-12-11T00:33:05;25.17;;;16.43;;
15230;SDS011;32569;51.762;8.564;2022-12-11T00:35:36;24.80;;;17.30;;
15230;SDS011;32569;51.762;8.564;2022-12-11T00:38:04;24.60;;;16.63;;
15230;SDS011;32569;51.762;8.564;2022-12-11T00:40:32;25.00;;;17.77;;
15230;SDS011;32569;51.762;8.564;2022-12-11T00:42:59;25.93;;;17.33;;
15230;SDS011;32569;51.762;8.564;2022-12-11T00:45:27;25.37;;;16.97;;
15230;SDS011;32569;51.762;8.564;2022-12-11T00:47:55;23.13;;;15.83;;
15230;SDS011;32569;51.762;8.564;2022-12-11T00:50:22;25.73;;;16.60;;
15230;SDS011;32569;51.762;8.564;2022-12-11T00:52:49;22.70;;;16.10;;
15230;SDS011;32569;51.762;8.564;2022-12-11T00:55:15;24.60;;;16.67;;
15230;SDS011;32569;51.762;8.564;2022-12-11T00:57:42;22.27;;;15.27;;
15230;SDS011;32569;51.762;8.564;2022-12-11T01:00:09;22.83;;;16.37;;
15230;SDS011;32569;51.762;8.564;2022-12-11T01:02:41;22.47;;;16.60;;
15230;SDS011;32569;51.762;8.564;2022-12-11T01:05:08;22.43;;;15.77;;
15230;SDS011;32569;51.762;8.564;2022-12-11T01:07:35;20.60;;;15.17;;
15230;SDS011;32569;51.762;8.564;2022-12-11T01:10:02;26.17;;;16.87;;
15230;SDS011;32569;51.762;8.564;2022-12-11T01:12:47;21.30;;;15.23;;
15230;SDS011;32569;51.762;8.564;2022-12-11T01:15:14;23.57;;;17.10;;
15230;SDS011;32569;51.762;8.564;2022-12-11T01:17:43;23.33;;;15.77;;
15230;SDS011;32569;51.762;8.564;2022-12-11T01:20:10;24.07;;;16.47;;
15230;SDS011;32569;51.762;8.564;2022-12-11T01:22:38;24.93;;;17.03;;
15230;SDS011;32569;51.762;8.564;2022-12-11T01:25:06;26.20;;;17.83;;
15230;SDS011;32569;51.762;8.564;2022-12-11T01:27:34;24.77;;;16.97;;
15230;SDS011;32569;51.762;8.564;2022-12-11T01:30:01;24.30;;;17.17;;
15230;SDS011;32569;51.762;8.564;2022-12-11T01:32:29;27.93;;;17.10;;
15230;SDS011;32569;51.762;8.564;2022-12-11T01:34:57;23.20;;;16.57;;
15230;SDS011;32569;51.762;8.564;2022-12-11T01:37:24;24.33;;;16.70;;
15230;SDS011;32569;51.762;8.564;2022-12-11T01:39:51;25.17;;;16.80;;
15230;SDS011;32569;51.762;8.564;2022-12-11T01:42:19;24.97;;;18.03;;
15230;SDS011;32569;51.762;8.564;2022-12-11T01:45:13;26.57;;;18.20;;
15230;SDS011;32569;51.762;8.564;2022-12-11T01:47:48;25.87;;;17.10;;
15230;SDS011;32569;51.762;8.564;2022-12-11T01:50:18;25.63;;;17.83;;
15230;SDS011;32569;51.762;8.564;2022-12-11T01:52:45;28.63;;;18.67;;
15230;SDS011;32569;51.762;8.564;2022-12-11T01:55:14;27.83;;;17.50;;
15230;SDS011;32569;51.762;8.564;2022-12-11T01:57:42;29.83;;;19.37;;
15230;SDS011;32569;51.762;8.564;2022-12-11T02:00:13;27.93;;;18.87;;
15230;SDS011;32569;51.762;8.564;2022-12-11T02:02:40;27.60;;;17.83;;
15230;SDS011;32569;51.762;8.564;2022-12-11T02:05:07;29.80;;;18.50;;
15230;SDS011;32569;51.762;8.564;2022-12-11T02:07:36;29.70;;;19.37;;
15230;SDS011;32569;51.762;8.564;2022-12-11T02:10:06;26.97;;;18.67;;
15230;SDS011;32569;51.762;8.564;2022-12-11T02:12:37;28.57;;;18.77;;
15230;SDS011;32569;51.762;8.564;2022-12-11T02:15:09;30.07;;;20.10;;
15230;SDS011;32569;51.762;8.564;2022-12-11T02:17:43;30.60;;;19.40;;
15230;SDS011;32569;51.762;8.564;2022-12-11T02:20:15;32.83;;;19.93;;
15230;SDS011;32569;51.762;8.564;2022-12-11T02:25:51;29.07;;;19.60;;
15230;SDS011;32569;51.762;8.564;2022-12-11T02:28:24;30.33;;;19.80;;
15230;SDS011;32569;51.762;8.564;2022-12-11T02:30:57;30.53;;;19.30;;
15230;SDS011;32569;51.762;8.564;2022-12-11T02:33:28;28.90;;;20.20;;
15230;SDS011;32569;51.762;8.564;2022-12-11T02:35:59;29.47;;;19.53;;
15230;SDS011;32569;51.762;8.564;2022-12-11T02:38:29;30.63;;;19.43;;
15230;SDS011;32569;51.762;8.564;2022-12-11T02:40:58;29.37;;;19.70;;
15230;SDS011;32569;51.762;8.564;2022-12-11T02:43:29;30.10;;;20.10;;
15230;SDS011;32569;51.762;8.564;2022-12-11T02:45:57;32.60;;;21.40;;
15230;SDS011;32569;51.762;8.564;2022-12-11T02:48:25;30.00;;;20.03;;
15230;SDS011;32569;51.762;8.564;2022-12-11T02:50:53;32.33;;;21.37;;
15230;SDS011;32569;51.762;8.564;2022-12-11T02:53:26;32.73;;;21.63;;
15230;SDS011;32569;51.762;8.564;2022-12-11T02:55:57;33.03;;;21.53;;
15230;SDS011;32569;51.762;8.564;2022-12-11T02:58:29;33.10;;;21.70;;
15230;SDS011;32569;51.762;8.564;2022-12-11T03:00:58;32.27;;;20.57;;
15230;SDS011;32569;51.762;8.564;2022-12-11T03:03:25;34.70;;;21.17;;
15230;SDS011;32569;51.762;8.564;2022-12-11T03:05:54;36.03;;;21.63;;
15230;SDS011;32569;51.762;8.564;2022-12-11T03:08:21;36.30;;;23.03;;
15230;SDS011;32569;51.762;8.564;2022-12-11T03:10:48;38.60;;;23.20;;
15230;SDS011;32569;51.762;8.564;2022-12-11T03:13:16;34.93;;;22.07;;
15230;SDS011;32569;51.762;8.564;2022-12-11T03:15:49;38.57;;;23.70;;
15230;SDS011;32569;51.762;8.564;2022-12-11T03:18:28;36.97;;;22.73;;
15230;SDS011;32569;51.762;8.564;2022-12-11T03:21:00;38.23;;;23.27;;
15230;SDS011;32569;51.762;8.564;2022-12-11T03:23:31;38.00;;;23.63;;
15230;SDS011;32569;51.762;8.564;2022-12-11T03:26:02;38.73;;;24.40;;
15230;SDS011;32569;51.762;8.564;2022-12-11T03:28:34;40.73;;;24.47;;
15230;SDS011;32569;51.762;8.564;2022-12-11T03:31:10;39.63;;;25.53;;
15230;SDS011;32569;51.762;8.564;2022-12-11T03:33:40;37.23;;;23.63;;
15230;SDS011;32569;51.762;8.564;2022-12-11T03:36:12;37.73;;;24.43;;
15230;SDS011;32569;51.762;8.564;2022-12-11T03:38:45;39.17;;;24.03;;
15230;SDS011;32569;51.762;8.564;2022-12-11T03:41:15;38.50;;;24.73;;
15230;SDS011;32569;51.762;8.564;2022-12-11T03:43:45;41.03;;;25.00;;
15230;SDS011;32569;51.762;8.564;2022-12-11T03:46:15;39.83;;;24.73;;
15230;SDS011;32569;51.762;8.564;2022-12-11T03:48:43;36.80;;;23.90;;
15230;SDS011;32569;51.762;8.564;2022-12-11T03:51:13;39.70;;;24.27;;
15230;SDS011;32569;51.762;8.564;2022-12-11T03:53:42;39.23;;;23.33;;
15230;SDS011;32569;51.762;8.564;2022-12-11T03:56:10;44.03;;;26.27;;
15230;SDS011;32569;51.762;8.564;2022-12-11T03:58:40;42.03;;;24.83;;
15230;SDS011;32569;51.762;8.564;2022-12-11T04:01:07;42.67;;;26.20;;
15230;SDS011;32569;51.762;8.564;2022-12-11T04:03:36;44.90;;;24.93;;
15230;SDS011;32569;51.762;8.564;2022-12-11T04:06:03;39.93;;;24.70;;
15230;SDS011;32569;51.762;8.564;2022-12-11T04:08:30;42.03;;;25.47;;
15230;SDS011;32569;51.762;8.564;2022-12-11T04:10:57;40.80;;;25.93;;
15230;SDS011;32569;51.762;8.564;2022-12-11T04:13:41;44.53;;;25.90;;
15230;SDS011;32569;51.762;8.564;2022-12-11T04:16:08;42.93;;;25.93;;
15230;SDS011;32569;51.762;8.564;2022-12-11T04:18:35;50.73;;;28.63;;
15230;SDS011;32569;51.762;8.564;2022-12-11T04:21:20;46.73;;;25.27;;
15230;SDS011;32569;51.762;8.564;2022-12-11T04:24:04;45.03;;;26.47;;
15230;SDS011;32569;51.762;8.564;2022-12-11T04:26:40;46.73;;;26.33;;
15230;SDS011;32569;51.762;8.564;2022-12-11T04:29:08;44.67;;;26.93;;
15230;SDS011;32569;51.762;8.564;2022-12-11T04:31:34;45.53;;;27.77;;
15230;SDS011;32569;51.762;8.564;2022-12-11T04:34:03;44.53;;;27.00;;
15230;SDS011;32569;51.762;8.564;2022-12-11T04:36:30;52.07;;;29.03;;
15230;SDS011;32569;51.762;8.564;2022-12-11T04:38:56;54.87;;;29.73;;
15230;SDS011;32569;51.762;8.564;2022-12-11T04:41:23;53.70;;;28.90;;
15230;SDS011;32569;51.762;8.564;2022-12-11T04:43:50;49.33;;;29.00;;
15230;SDS011;32569;51.762;8.564;2022-12-11T04:46:18;49.40;;;29.33;;
15230;SDS011;32569;51.762;8.564;2022-12-11T04:48:46;49.43;;;28.50;;
15230;SDS011;32569;51.762;8.564;2022-12-11T04:51:16;53.60;;;30.90;;
15230;SDS011;32569;51.762;8.564;2022-12-11T04:53:43;51.63;;;29.23;;
15230;SDS011;32569;51.762;8.564;2022-12-11T04:56:13;51.87;;;29.87;;
15230;SDS011;32569;51.762;8.564;2022-12-11T04:58:41;58.53;;;30.07;;
15230;SDS011;32569;51.762;8.564;2022-12-11T05:01:09;52.60;;;30.37;;
15230;SDS011;32569;51.762;8.564;2022-12-11T05:03:36;60.10;;;30.57;;
15230;SDS011;32569;51.762;8.564;2022-12-11T05:06:04;66.77;;;32.30;;
15230;SDS011;32569;51.762;8.564;2022-12-11T05:08:33;61.93;;;30.93;;
15230;SDS011;32569;51.762;8.564;2022-12-11T05:11:01;58.93;;;31.27;;
15230;SDS011;32569;51.762;8.564;2022-12-11T05:13:29;68.83;;;33.90;;
15230;SDS011;32569;51.762;8.564;2022-12-11T05:15:56;67.73;;;32.70;;
15230;SDS011;32569;51.762;8.564;2022-12-11T05:18:24;69.50;;;33.50;;
15230;SDS011;32569;51.762;8.564;2022-12-11T05:20:54;65.57;;;32.37;;
15230;SDS011;32569;51.762;8.564;2022-12-11T05:23:22;72.67;;;31.53;;
15230;SDS011;32569;51.762;8.564;2022-12-11T05:25:54;71.87;;;33.33;;
15230;SDS011;32569;51.762;8.564;2022-12-11T05:28:21;62.67;;;31.87;;
15230;SDS011;32569;51.762;8.564;2022-12-11T05:30:53;69.07;;;33.00;;
15230;SDS011;32569;51.762;8.564;2022-12-11T05:33:21;67.43;;;32.00;;
15230;SDS011;32569;51.762;8.564;2022-12-11T05:35:48;67.60;;;32.93;;
15230;SDS011;32569;51.762;8.564;2022-12-11T05:38:15;61.67;;;32.30;;
15230;SDS011;32569;51.762;8.564;2022-12-11T05:40:42;63.03;;;31.20;;
15230;SDS011;32569;51.762;8.564;2022-12-11T05:43:12;68.53;;;32.03;;
15230;SDS011;32569;51.762;8.564;2022-12-11T05:45:39;64.60;;;31.43;;
15230;SDS011;32569;51.762;8.564;2022-12-11T05:48:05;81.80;;;33.60;;
15230;SDS011;32569;51.762;8.564;2022-12-11T05:50:32;64.10;;;31.27;;
15230;SDS011;32569;51.762;8.564;2022-12-11T05:52:59;71.07;;;31.70;;
15230;SDS011;32569;51.762;8.564;2022-12-11T05:55:26;64.07;;;32.27;;
15230;SDS011;32569;51.762;8.564;2022-12-11T05:57:53;71.63;;;32.90;;
15230;SDS011;32569;51.762;8.564;2022-12-11T06:00:21;61.53;;;31.77;;
15230;SDS011;32569;51.762;8.564;2022-12-11T06:02:48;63.17;;;31.80;;
15230;SDS011;32569;51.762;8.564;2022-12-11T06:05:15;65.53;;;29.90;;
15230;SDS011;32569;51.762;8.564;2022-12-11T06:07:42;67.70;;;31.27;;
15230;SDS011;32569;51.762;8.564;2022-12-11T06:10:08;60.47;;;30.50;;
15230;SDS011;32569;51.762;8.564;2022-12-11T06:12:35;59.47;;;31.13;;
15230;SDS011;32569;51.762;8.564;2022-12-11T06:15:02;61.43;;;29.60;;
15230;SDS011;32569;51.762;8.564;2022-12-11T06:17:32;60.67;;;28.47;;
15230;SDS011;32569;51.762;8.564;2022-12-11T06:20:00;58.97;;;28.37;;
15230;SDS011;32569;51.762;8.564;2022-12-11T06:22:27;54.90;;;27.70;;
15230;SDS011;32569;51.762;8.564;2022-12-11T06:24:55;59.67;;;28.70;;
15230;SDS011;32569;51.762;8.564;2022-12-11T06:27:22;59.50;;;28.07;;
15230;SDS011;32569;51.762;8.564;2022-12-11T06:29:49;60.07;;;27.73;;
15230;SDS011;32569;51.762;8.564;2022-12-11T06:32:16;62.03;;;29.37;;
15230;SDS011;32569;51.762;8.564;2022-12-11T06:34:44;62.67;;;26.83;;
15230;SDS011;32569;51.762;8.564;2022-12-11T06:37:11;54.83;;;26.50;;
15230;SDS011;32569;51.762;8.564;2022-12-11T06:39:38;58.50;;;26.57;;
15230;SDS011;32569;51.762;8.564;2022-12-11T06:42:04;59.73;;;28.03;;
15230;SDS011;32569;51.762;8.564;2022-12-11T06:44:31;60.40;;;28.10;;
15230;SDS011;32569;51.762;8.564;2022-12-11T06:46:58;58.80;;;25.70;;
15230;SDS011;32569;51.762;8.564;2022-12-11T06:49:25;58.60;;;26.00;;
15230;SDS011;32569;51.762;8.564;2022-12-11T06:51:53;59.87;;;26.53;;
15230;SDS011;32569;51.762;8.564;2022-12-11T06:54:20;60.27;;;25.63;;
15230;SDS011;32569;51.762;8.564;2022-12-11T06:56:50;59.33;;;25.33;;
15230;SDS011;32569;51.762;8.564;2022-12-11T06:59:17;54.97;;;23.90;;
15230;SDS011;32569;51.762;8.564;2022-12-11T07:01:44;60.70;;;25.27;;
15230;SDS011;32569;51.762;8.564;2022-12-11T07:04:11;58.73;;;25.53;;
15230;SDS011;32569;51.762;8.564;2022-12-11T07:06:38;48.07;;;23.90;;
15230;SDS011;32569;51.762;8.564;2022-12-11T07:09:06;50.13;;;23.37;;
15230;SDS011;32569;51.762;8.564;2022-12-11T07:11:35;51.30;;;23.63;;
15230;SDS011;32569;51.762;8.564;2022-12-11T07:14:01;46.27;;;23.27;;
15230;SDS011;32569;51.762;8.564;2022-12-11T07:16:28;47.50;;;23.90;;
15230;SDS011;32569;51.762;8.564;2022-12-11T07:18:55;52.10;;;24.60;;
15230;SDS011;32569;51.762;8.564;2022-12-11T07:21:23;48.23;;;24.50;;
15230;SDS011;32569;51.762;8.564;2022-12-11T07:23:49;47.40;;;23.10;;
15230;SDS011;32569;51.762;8.564;2022-12-11T07:26:19;48.90;;;23.57;;
15230;SDS011;32569;51.762;8.564;2022-12-11T07:28:47;44.93;;;23.23;;
15230;SDS011;32569;51.762;8.564;2022-12-11T07:31:15;48.23;;;23.77;;
15230;SDS011;32569;51.762;8.564;2022-12-11T07:33:43;46.87;;;23.63;;
15230;SDS011;32569;51.762;8.564;2022-12-11T07:36:11;47.50;;;22.93;;
15230;SDS011;32569;51.762;8.564;2022-12-11T07:38:38;49.33;;;23.10;;
15230;SDS011;32569;51.762;8.564;2022-12-11T07:41:07;50.03;;;23.77;;
15230;SDS011;32569;51.762;8.564;2022-12-11T07:43:37;49.27;;;24.73;;
15230;SDS011;32569;51.762;8.564;2022-12-11T07:46:05;47.70;;;21.70;;
15230;SDS011;32569;51.762;8.564;2022-12-11T07:48:34;50.33;;;23.20;;
15230;SDS011;32569;51.762;8.564;2022-12-11T07:51:07;50.27;;;22.67;;
15230;SDS011;32569;51.762;8.564;2022-12-11T07:53:34;44.93;;;23.03;;
15230;SDS011;32569;51.762;8.564;2022-12-11T07:56:01;44.73;;;22.20;;
15230;SDS011;32569;51.762;8.564;2022-12-11T07:58:28;52.50;;;24.90;;
15230;SDS011;32569;51.762;8.564;2022-12-11T08:00:56;46.97;;;23.57;;
15230;SDS011;32569;51.762;8.564;2022-12-11T08:03:23;54.23;;;25.23;;
15230;SDS011;32569;51.762;8.564;2022-12-11T08:05:51;46.93;;;24.77;;
15230;SDS011;32569;51.762;8.564;2022-12-11T08:08:18;48.30;;;23.80;;
15230;SDS011;32569;51.762;8.564;2022-12-11T08:10:46;46.60;;;22.70;;
15230;SDS011;32569;51.762;8.564;2022-12-11T08:13:13;48.63;;;23.17;;
15230;SDS011;32569;51.762;8.564;2022-12-11T08:15:39;48.93;;;23.43;;
15230;SDS011;32569;51.762;8.564;2022-12-11T08:18:07;46.57;;;23.23;;
15230;SDS011;32569;51.762;8.564;2022-12-11T08:20:36;51.20;;;24.73;;
15230;SDS011;32569;51.762;8.564;2022-12-11T08:23:04;47.17;;;22.87;;
15230;SDS011;32569;51.762;8.564;2022-12-11T08:25:31;44.00;;;22.20;;
15230;SDS011;32569;51.762;8.564;2022-12-11T08:27:57;46.07;;;23.87;;
15230;SDS011;32569;51.762;8.564;2022-12-11T08:30:24;46.03;;;22.40;;
15230;SDS011;32569;51.762;8.564;2022-12-11T08:32:51;44.03;;;23.80;;
15230;SDS011;32569;51.762;8.564;2022-12-11T08:35:19;45.30;;;23.07;;
15230;SDS011;32569;51.762;8.564;2022-12-11T08:37:46;46.00;;;22.20;;
15230;SDS011;32569;51.762;8.564;2022-12-11T08:40:12;36.47;;;18.80;;
15230;SDS011;32569;51.762;8.564;2022-12-11T08:42:39;39.20;;;19.93;;
15230;SDS011;32569;51.762;8.564;2022-12-11T08:45:07;43.97;;;20.67;;
15230;SDS011;32569;51.762;8.564;2022-12-11T08:47:34;36.50;;;19.07;;
15230;SDS011;32569;51.762;8.564;2022-12-11T08:50:01;34.87;;;18.97;;
15230;SDS011;32569;51.762;8.564;2022-12-11T08:52:29;35.30;;;20.33;;
15230;SDS011;32569;51.762;8.564;2022-12-11T08:54:58;33.73;;;19.03;;
15230;SDS011;32569;51.762;8.564;2022-12-11T08:57:26;37.87;;;19.40;;
15230;SDS011;32569;51.762;8.564;2022-12-11T08:59:54;39.80;;;19.70;;
15230;SDS011;32569;51.762;8.564;2022-12-11T09:02:21;36.47;;;20.37;;
15230;SDS011;32569;51.762;8.564;2022-12-11T09:04:48;34.97;;;18.33;;
15230;SDS011;32569;51.762;8.564;2022-12-11T09:07:15;35.53;;;16.77;;
15230;SDS011;32569;51.762;8.564;2022-12-11T09:09:43;30.77;;;17.63;;
15230;SDS011;32569;51.762;8.564;2022-12-11T09:12:10;24.77;;;15.13;;
15230;SDS011;32569;51.762;8.564;2022-12-11T09:14:38;23.53;;;14.17;;
15230;SDS011;32569;51.762;8.564;2022-12-11T09:17:05;19.23;;;12.93;;
15230;SDS011;32569;51.762;8.564;2022-12-11T09:19:32;16.03;;;9.93;;
15230;SDS011;32569;51.762;8.564;2022-12-11T09:21:59;17.83;;;13.03;;
15230;SDS011;32569;51.762;8.564;2022-12-11T09:24:26;21.77;;;13.47;;
15230;SDS011;32569;51.762;8.564;2022-12-11T09:26:54;19.73;;;12.87;;
15230;SDS011;32569;51.762;8.564;2022-12-11T09:29:22;19.53;;;12.43;;
15230;SDS011;32569;51.762;8.564;2022-12-11T09:31:50;18.80;;;12.97;;
15230;SDS011;32569;51.762;8.564;2022-12-11T09:34:17;24.90;;;14.07;;
15230;SDS011;32569;51.762;8.564;2022-12-11T09:36:44;18.40;;;12.43;;
15230;SDS011;32569;51.762;8.564;2022-12-11T09:39:11;19.07;;;12.33;;
15230;SDS011;32569;51.762;8.564;2022-12-11T09:41:44;19.17;;;11.63;;
15230;SDS011;32569;51.762;8.564;2022-12-11T09:44:17;19.13;;;12.30;;
15230;SDS011;32569;51.762;8.564;2022-12-11T09:46:48;20.10;;;13.70;;
15230;SDS011;32569;51.762;8.564;2022-12-11T09:49:30;20.63;;;12.63;;
15230;SDS011;32569;51.762;8.564;2022-12-11T09:52:02;18.37;;;12.43;;
15230;SDS011;32569;51.762;8.564;2022-12-11T09:54:35;20.90;;;14.60;;
15230;SDS011;32569;51.762;8.564;2022-12-11T09:57:08;23.70;;;14.43;;
15230;SDS011;32569;51.762;8.564;2022-12-11T09:59:49;25.07;;;16.80;;
15230;SDS011;32569;51.762;8.564;2022-12-11T10:02:30;23.93;;;15.23;;
15230;SDS011;32569;51.762;8.564;2022-12-11T10:05:11;23.30;;;14.73;;
15230;SDS011;32569;51.762;8.564;2022-12-11T10:07:44;22.93;;;14.40;;
15230;SDS011;32569;51.762;8.564;2022-12-11T10:10:15;24.63;;;15.80;;
15230;SDS011;32569;51.762;8.564;2022-12-11T10:12:51;28.93;;;16.70;;
15230;SDS011;32569;51.762;8.564;2022-12-11T10:15:25;25.33;;;15.43;;
15230;SDS011;32569;51.762;8.564;2022-12-11T10:18:02;21.57;;;14.97;;
15230;SDS011;32569;51.762;8.564;2022-12-11T10:20:32;22.30;;;14.57;;
15230;SDS011;32569;51.762;8.564;2022-12-11T10:23:03;25.07;;;15.13;;
15230;SDS011;32569;51.762;8.564;2022-12-11T10:25:33;21.60;;;15.07;;
15230;SDS011;32569;51.762;8.564;2022-12-11T10:28:07;18.73;;;13.20;;
15230;SDS011;32569;51.762;8.564;2022-12-11T10:30:40;23.53;;;14.03;;
15230;SDS011;32569;51.762;8.564;2022-12-11T10:33:13;26.77;;;16.17;;
15230;SDS011;32569;51.762;8.564;2022-12-11T10:35:46;23.37;;;14.80;;
15230;SDS011;32569;51.762;8.564;2022-12-11T10:38:16;22.27;;;14.77;;
15230;SDS011;32569;51.762;8.564;2022-12-11T10:40:49;26.20;;;15.10;;
15230;SDS011;32569;51.762;8.564;2022-12-11T10:43:20;22.90;;;13.97;;
15230;SDS011;32569;51.762;8.564;2022-12-11T10:45:59;19.77;;;13.47;;
15230;SDS011;32569;51.762;8.564;2022-12-11T10:48:26;21.27;;;14.13;;
15230;SDS011;32569;51.762;8.564;2022-12-11T10:50:55;20.97;;;13.90;;
15230;SDS011;32569;51.762;8.564;2022-12-11T10:53:24;21.23;;;13.60;;
15230;SDS011;32569;51.762;8.564;2022-12-11T10:55:52;20.00;;;14.17;;
15230;SDS011;32569;51.762;8.564;2022-12-11T10:58:19;23.70;;;15.20;;
15230;SDS011;32569;51.762;8.564;2022-12-11T11:00:56;26.37;;;16.40;;
15230;SDS011;32569;51.762;8.564;2022-12-11T11:03:28;25.37;;;17.30;;
15230;SDS011;32569;51.762;8.564;2022-12-11T11:06:02;23.33;;;15.20;;
15230;SDS011;32569;51.762;8.564;2022-12-11T11:08:36;23.87;;;16.53;;
15230;SDS011;32569;51.762;8.564;2022-12-11T11:11:05;23.00;;;15.03;;
15230;SDS011;32569;51.762;8.564;2022-12-11T11:13:41;26.13;;;16.37;;
15230;SDS011;32569;51.762;8.564;2022-12-11T11:16:12;27.83;;;15.77;;
15230;SDS011;32569;51.762;8.564;2022-12-11T11:18:49;23.57;;;15.90;;
15230;SDS011;32569;51.762;8.564;2022-12-11T11:21:19;24.43;;;15.70;;
15230;SDS011;32569;51.762;8.564;2022-12-11T11:23:48;26.37;;;16.30;;
15230;SDS011;32569;51.762;8.564;2022-12-11T11:26:15;28.07;;;15.63;;
15230;SDS011;32569;51.762;8.564;2022-12-11T11:28:46;25.30;;;15.73;;
15230;SDS011;32569;51.762;8.564;2022-12-11T11:31:16;24.03;;;15.10;;
15230;SDS011;32569;51.762;8.564;2022-12-11T11:33:45;24.77;;;16.37;;
15230;SDS011;32569;51.762;8.564;2022-12-11T11:36:20;27.57;;;15.60;;
15230;SDS011;32569;51.762;8.564;2022-12-11T11:38:48;27.53;;;16.67;;
15230;SDS011;32569;51.762;8.564;2022-12-11T11:41:28;25.83;;;16.10;;
15230;SDS011;32569;51.762;8.564;2022-12-11T11:44:01;24.73;;;16.13;;
15230;SDS011;32569;51.762;8.564;2022-12-11T11:46:36;25.87;;;16.10;;
15230;SDS011;32569;51.762;8.564;2022-12-11T11:49:11;25.07;;;18.67;;
15230;SDS011;32569;51.762;8.564;2022-12-11T11:51:44;28.40;;;16.33;;
15230;SDS011;32569;51.762;8.564;2022-12-11T11:54:19;24.87;;;15.97;;
15230;SDS011;32569;51.762;8.564;2022-12-11T11:56:50;26.90;;;17.87;;
15230;SDS011;32569;51.762;8.564;2022-12-11T11:59:22;28.00;;;17.20;;
15230;SDS011;32569;51.762;8.564;2022-12-11T12:01:55;27.83;;;16.43;;
15230;SDS011;32569;51.762;8.564;2022-12-11T12:04:24;26.00;;;16.43;;
15230;SDS011;32569;51.762;8.564;2022-12-11T12:06:58;30.83;;;17.90;;
15230;SDS011;32569;51.762;8.564;2022-12-11T12:09:42;29.17;;;18.67;;
15230;SDS011;32569;51.762;8.564;2022-12-11T12:12:18;29.10;;;17.13;;
15230;SDS011;32569;51.762;8.564;2022-12-11T12:15:01;25.27;;;16.57;;
15230;SDS011;32569;51.762;8.564;2022-12-11T12:17:46;27.97;;;17.00;;
15230;SDS011;32569;51.762;8.564;2022-12-11T12:20:18;26.83;;;16.60;;
15230;SDS011;32569;51.762;8.564;2022-12-11T12:22:54;28.47;;;16.03;;
15230;SDS011;32569;51.762;8.564;2022-12-11T12:25:28;31.87;;;18.80;;
15230;SDS011;32569;51.762;8.564;2022-12-11T12:28:03;28.00;;;17.13;;
15230;SDS011;32569;51.762;8.564;2022-12-11T12:30:42;27.80;;;17.47;;
15230;SDS011;32569;51.762;8.564;2022-12-11T12:33:25;27.03;;;16.27;;
15230;SDS011;32569;51.762;8.564;2022-12-11T12:36:05;23.20;;;16.57;;
15230;SDS011;32569;51.762;8.564;2022-12-11T12:38:41;27.73;;;16.43;;
15230;SDS011;32569;51.762;8.564;2022-12-11T12:41:19;29.30;;;18.50;;
15230;SDS011;32569;51.762;8.564;2022-12-11T12:43:59;28.83;;;17.33;;
15230;SDS011;32569;51.762;8.564;2022-12-11T12:46:51;27.97;;;18.00;;
15230;SDS011;32569;51.762;8.564;2022-12-11T12:49:34;29.10;;;18.37;;
15230;SDS011;32569;51.762;8.564;2022-12-11T12:52:06;28.70;;;18.43;;
15230;SDS011;32569;51.762;8.564;2022-12-11T12:54:38;25.70;;;17.07;;
15230;SDS011;32569;51.762;8.564;2022-12-11T12:57:07;30.70;;;18.80;;
15230;SDS011;32569;51.762;8.564;2022-12-11T12:59:34;28.97;;;18.43;;
15230;SDS011;32569;51.762;8.564;2022-12-11T13:02:01;26.83;;;18.17;;
15230;SDS011;32569;51.762;8.564;2022-12-11T13:04:36;27.97;;;17.63;;
15230;SDS011;32569;51.762;8.564;2022-12-11T13:07:11;28.63;;;19.13;;
15230;SDS011;32569;51.762;8.564;2022-12-11T13:09:41;30.43;;;17.90;;
15230;SDS011;32569;51.762;8.564;2022-12-11T13:12:11;28.63;;;18.07;;
15230;SDS011;32569;51.762;8.564;2022-12-11T13:14:40;32.00;;;18.27;;
15230;SDS011;32569;51.762;8.564;2022-12-11T13:17:22;28.57;;;17.40;;
15230;SDS011;32569;51.762;8.564;2022-12-11T13:20:08;27.93;;;17.90;;
15230;SDS011;32569;51.762;8.564;2022-12-11T13:22:46;26.47;;;17.17;;
15230;SDS011;32569;51.762;8.564;2022-12-11T13:25:19;28.30;;;17.40;;
15230;SDS011;32569;51.762;8.564;2022-12-11T13:27:49;28.80;;;17.83;;
15230;SDS011;32569;51.762;8.564;2022-12-11T13:30:20;31.40;;;18.97;;
15230;SDS011;32569;51.762;8.564;2022-12-11T13:32:50;27.03;;;17.67;;
15230;SDS011;32569;51.762;8.564;2022-12-11T13:35:25;31.90;;;19.97;;
15230;SDS011;32569;51.762;8.564;2022-12-11T13:37:52;30.20;;;17.27;;
15230;SDS011;32569;51.762;8.564;2022-12-11T13:40:21;31.20;;;19.40;;
15230;SDS011;32569;51.762;8.564;2022-12-11T13:42:51;32.87;;;18.90;;
15230;SDS011;32569;51.762;8.564;2022-12-11T13:45:22;29.20;;;19.30;;
15230;SDS011;32569;51.762;8.564;2022-12-11T13:47:55;25.30;;;17.57;;
15230;SDS011;32569;51.762;8.564;2022-12-11T13:50:24;32.33;;;20.17;;
15230;SDS011;32569;51.762;8.564;2022-12-11T13:52:56;34.37;;;20.57;;
15230;SDS011;32569;51.762;8.564;2022-12-11T13:55:25;28.57;;;19.00;;
15230;SDS011;32569;51.762;8.564;2022-12-11T13:57:54;32.20;;;17.80;;
15230;SDS011;32569;51.762;8.564;2022-12-11T14:00:22;26.67;;;17.70;;
15230;SDS011;32569;51.762;8.564;2022-12-11T14:02:51;29.00;;;19.13;;
15230;SDS011;32569;51.762;8.564;2022-12-11T14:05:20;30.27;;;18.87;;
15230;SDS011;32569;51.762;8.564;2022-12-11T14:07:49;28.17;;;17.97;;
15230;SDS011;32569;51.762;8.564;2022-12-11T14:10:18;30.03;;;18.00;;
15230;SDS011;32569;51.762;8.564;2022-12-11T14:12:49;29.23;;;18.40;;
15230;SDS011;32569;51.762;8.564;2022-12-11T14:15:21;28.23;;;16.73;;
15230;SDS011;32569;51.762;8.564;2022-12-11T14:17:48;29.47;;;18.20;;
15230;SDS011;32569;51.762;8.564;2022-12-11T14:20:17;29.37;;;17.60;;
15230;SDS011;32569;51.762;8.564;2022-12-11T14:22:46;30.07;;;20.00;;
15230;SDS011;32569;51.762;8.564;2022-12-11T14:25:17;30.37;;;19.53;;
15230;SDS011;32569;51.762;8.564;2022-12-11T14:27:49;34.13;;;19.83;;
15230;SDS011;32569;51.762;8.564;2022-12-11T14:30:19;30.50;;;17.27;;
15230;SDS011;32569;51.762;8.564;2022-12-11T14:32:47;28.07;;;17.50;;
15230;SDS011;32569;51.762;8.564;2022-12-11T14:35:22;26.57;;;16.87;;
15230;SDS011;32569;51.762;8.564;2022-12-11T14:37:51;26.57;;;17.30;;
15230;SDS011;32569;51.762;8.564;2022-12-11T14:40:21;31.90;;;18.37;;